Latest Weather Observations for Yarrawonga

IDV60801

Issued at 3:32 pm EDT Tuesday 24 January 2017 (issued every 30 minutes, with the page automatically refreshed every 10 minutes)

About weather observations | Map of weather stations | Latest weather observations for VIC | Other Formats
Station Details ID: 081124 Name: YARRAWONGA Lat: -36.03 Lon: 146.03 Height: 128.9 m
Data from the previous 72 hours. | See also: Recent months at Yarrawonga
Date/Time
EDT
Temp
°C
App
Temp
°C
Dew
Point
°C
Rel
Hum
%
Delta-T
°C
Wind Press
QNH
hPa
Press
MSL
hPa
Rain since
9am
mm
Dir  Spd
km/h
Gust
km/h
Spd
kts
Gust
kts
24/03:00pm 29.2 25.2 10.3 31 10.8 SW 22 35 12 19 1012.0 1011.4 0.0
24/02:30pm 29.9 26.1 12.3 33 10.4 WSW 24 33 13 18 1011.8 1011.2 0.0
24/02:00pm 28.8 25.5 13.9 40 9.0 SW 24 41 13 22 1011.9 1011.3 0.0
24/01:30pm 29.4 27.9 16.2 44 8.2 SW 19 37 10 20 1011.9 1011.3 0.0
24/01:00pm 29.3 27.2 16.1 44 8.2 SW 22 35 12 19 1011.8 1011.2 0.0
24/12:30pm 28.0 26.4 18.4 56 6.2 WSW 24 37 13 20 1011.7 1011.1 0.0
24/12:00pm 28.3 27.7 19.8 60 5.6 SW 22 32 12 17 1011.5 1010.9 0.0
24/11:30am 28.1 26.5 20.1 62 5.3 SSW 28 37 15 20 1011.0 1010.4 0.0
24/11:00am 27.8 27.0 20.1 63 5.1 SW 24 33 13 18 1010.8 1010.2 0.0
24/10:30am 28.8 29.0 21.3 64 5.0 WSW 22 37 12 20 1010.6 1010.0 0.0
24/10:00am 27.6 28.2 22.8 75 3.3 WSW 24 35 13 19 1010.8 1010.2 0.0
24/09:30am 24.9 24.5 21.6 82 2.2 W 26 35 14 19 1010.7 1010.1 0.0
24/09:00am 25.3 25.5 22.0 82 2.2 W 24 33 13 18 1010.0 1009.4 0.0
24/08:30am 24.6 25.6 21.7 84 1.9 W 19 28 10 15 1009.5 1008.9 0.0
24/08:00am 24.3 25.6 21.6 85 1.8 WNW 17 22 9 12 1009.0 1008.4 0.0
24/07:30am 23.9 25.6 21.6 87 1.5 WNW 15 26 8 14 1008.1 1007.4 0.0
24/07:00am 23.8 25.9 21.7 88 1.4 WNW 13 19 7 10 1007.6 1006.9 0.0
24/06:30am 23.6 25.5 21.3 87 1.5 WNW 13 17 7 9 1007.7 1007.0 0.0
24/06:00am 23.4 25.9 21.1 87 1.5 NNW 9 13 5 7 1006.5 1005.9 0.0
24/05:30am 23.3 25.8 21.0 87 1.5 NW 9 13 5 7 1006.9 1006.2 0.0
24/05:00am 23.0 25.8 20.9 88 1.4 NW 7 9 4 5 1006.2 1005.6 0.0
24/04:30am 22.5 26.0 20.4 88 1.4 W 2 6 1 3 1005.9 1005.3 0.0
24/04:00am 22.4 25.5 20.3 88 1.4 SSW 4 9 2 5 1005.9 1005.3 0.0
24/03:30am 23.9 24.3 19.8 78 2.7 SW 17 24 9 13 1006.0 1005.4 0.0
24/03:00am 25.4 23.5 18.6 66 4.4 SW 26 35 14 19 1006.1 1005.5 0.0
24/02:30am 26.1 23.3 17.2 58 5.6 SW 28 43 15 23 1005.9 1005.3 0.0
24/02:00am 27.0 23.5 16.6 53 6.5 SW 30 41 16 22 1005.7 1005.1 0.0
24/01:30am 27.0 24.8 16.0 51 6.8 SW 22 30 12 16 1006.0 1005.4 0.0
24/01:00am 27.7 23.8 15.4 47 7.6 WSW 30 43 16 23 1005.5 1004.9 0.0
24/12:46am 29.8 26.0 14.7 39 9.2 W 28 54 15 29 1004.8 1004.2 0.0
24/12:30am 30.6 28.3 14.7 38 9.7 WNW 20 28 11 15 1003.9 1003.3 0.0
24/12:00am 32.8 31.1 12.4 29 12.2 NW 13 20 7 11 1003.3 1002.7 0.0
 
Date/Time
EDT
Temp
°C
App
Temp
°C
Dew
Point
°C
Rel
Hum
%
Delta-T
°C
Wind Press
QNH
hPa
Press
MSL
hPa
Rain since
9am
mm
Dir  Spd
km/h
Gust
km/h
Spd
kts
Gust
kts
23/11:30pm 31.4 31.7 15.0 37 10.1 NNE 7 11 4 6 1002.4 1001.8 0.0
23/11:00pm 32.0 33.7 15.1 36 10.5 CALM 0 0 0 0 1002.3 1001.7 0.0
23/10:30pm 32.7 33.5 14.8 34 11.1 WSW 4 7 2 4 1002.3 1001.7 0.0
23/10:00pm 34.4 34.3 13.3 28 12.9 WNW 6 9 3 5 1002.5 1001.9 0.0
23/09:30pm 34.8 34.8 14.1 28 12.8 WNW 7 9 4 5 1002.5 1001.9 0.0
23/09:00pm 34.6 35.1 15.0 31 12.3 W 6 7 3 4 1002.2 1001.6 0.0
23/08:30pm 35.9 36.4 14.0 27 13.5 W 4 6 2 3 1001.9 1001.3 0.0
23/08:00pm 37.8 37.7 13.8 24 15.0 WNW 7 13 4 7 1001.6 1000.9 0.0
23/07:30pm 38.4 38.0 14.2 23 15.1 WNW 9 15 5 8 1001.4 1000.7 0.0
23/07:00pm 39.7 38.5 14.0 22 16.2 WNW 13 17 7 9 1001.2 1000.5 0.0
23/06:30pm 39.2 36.5 12.9 21 16.2 WNW 19 33 10 18 1001.3 1000.6 0.0
23/06:00pm 39.7 37.1 13.3 21 16.5 WNW 19 26 10 14 1001.3 1000.6 0.0
23/05:30pm 39.9 37.1 12.7 20 16.8 NW 19 30 10 16 1001.6 1000.9 0.0
23/05:00pm 39.8 36.1 12.6 20 16.8 NW 24 39 13 21 1002.0 1001.4 0.0
23/04:30pm 40.3 37.1 13.0 20 16.9 NW 22 37 12 20 1002.3 1001.7 0.0
23/04:00pm 41.2 36.5 12.1 18 17.9 NW 28 41 15 22 1002.8 1002.2 0.0
23/03:30pm 40.1 36.6 12.1 19 17.1 NW 22 33 12 18 1003.1 1002.5 0.0
23/03:00pm 40.9 36.9 11.9 18 17.8 NNW 24 44 13 24 1003.5 1002.9 0.0
23/02:30pm 40.5 37.9 13.2 20 17.0 NW 19 43 10 23 1004.0 1003.4 0.0
23/02:00pm 39.0 35.8 12.0 20 16.5 NW 20 32 11 17 1004.6 1004.0 0.0
23/01:30pm 39.5 36.9 13.1 21 16.3 WNW 19 32 10 17 1005.2 1004.6 0.0
23/01:00pm 38.3 34.8 12.1 21 16.0 NW 22 35 12 19 1005.6 1005.0 0.0
23/12:30pm 37.8 35.0 13.1 23 15.2 NNW 20 35 11 19 1006.0 1005.4 0.0
23/12:00pm 37.8 37.4 16.1 27 13.9 N 13 28 7 15 1006.4 1005.8 0.0
23/11:30am 35.9 35.7 17.6 34 11.9 N 15 24 8 13 1006.9 1006.2 0.0
23/11:00am 33.7 32.9 17.0 37 10.7 N 17 26 9 14 1007.3 1006.6 0.0
23/10:30am 33.1 32.0 17.3 39 10.1 NNE 19 26 10 14 1007.5 1006.8 0.0
23/10:00am 31.7 30.5 16.0 38 9.9 NNE 17 26 9 14 1007.9 1007.2 0.0
23/09:30am 31.2 30.8 17.1 42 9.0 NE 15 24 8 13 1008.2 1007.5 0.0
23/09:00am 26.7 26.2 16.9 55 6.1 ENE 15 22 8 12 1008.3 1007.6 0.0
23/08:30am 26.0 24.7 15.7 53 6.3 ENE 17 22 9 12 1008.2 1007.5 0.0
23/08:00am 24.4 24.7 16.1 60 5.1 ESE 9 13 5 7 1008.4 1007.7 0.0
23/07:30am 23.7 24.3 15.7 61 4.9 E 7 11 4 6 1008.4 1007.7 0.0
23/07:00am 22.6 21.9 15.4 64 4.3 E 13 15 7 8 1008.2 1007.5 0.0
23/06:30am 21.9 21.2 15.5 67 3.8 E 13 17 7 9 1008.3 1007.6 0.0
23/06:00am 21.3 21.8 15.6 70 3.4 E 7 11 4 6 1008.3 1007.6 0.0
23/05:30am 21.1 21.6 15.6 71 3.3 E 7 9 4 5 1008.1 1007.4 0.0
23/05:00am 20.5 21.1 15.3 72 3.1 ESE 6 6 3 3 1007.9 1007.2 0.0
23/04:30am 21.0 21.6 15.3 70 3.4 E 6 7 3 4 1007.8 1007.1 0.0
23/04:00am 21.7 22.2 15.5 68 3.7 E 7 9 4 5 1007.9 1007.2 0.0
23/03:30am 21.8 21.9 15.6 68 3.7 ESE 9 13 5 7 1008.0 1007.3 0.0
23/03:00am 21.5 22.1 15.8 70 3.4 E 7 11 4 6 1008.1 1007.4 0.0
23/02:30am 21.7 22.3 15.8 69 3.6 E 7 9 4 5 1008.5 1007.9 0.0
23/02:00am 21.0 21.3 16.0 73 3.0 E 9 11 5 6 1008.7 1008.1 0.0
23/01:30am 20.8 21.4 15.4 71 3.2 E 6 7 3 4 1008.9 1008.3 0.0
23/01:00am 21.2 21.7 15.1 68 3.6 ESE 6 7 3 4 1009.2 1008.6 0.0
23/12:30am 21.2 22.3 15.7 71 3.3 SE 4 4 2 2 1009.5 1008.9 0.0
23/12:00am 22.1 22.7 15.2 65 4.1 ESE 6 7 3 4 1009.5 1008.9 0.0
 
Date/Time
EDT
Temp
°C
App
Temp
°C
Dew
Point
°C
Rel
Hum
%
Delta-T
°C
Wind Press
QNH
hPa
Press
MSL
hPa
Rain since
9am
mm
Dir  Spd
km/h
Gust
km/h
Spd
kts
Gust
kts
22/11:30pm 22.1 22.2 14.5 62 4.5 E 7 11 4 6 1009.6 1009.0 0.0
22/11:00pm 22.6 22.6 13.7 57 5.2 E 6 9 3 5 1009.7 1009.1 0.0
22/10:30pm 23.7 23.2 12.7 50 6.3 SE 7 11 4 6 1009.9 1009.3 0.0
22/10:00pm 24.6 23.8 12.9 48 6.8 SSE 9 13 5 7 1010.0 1009.4 0.0
22/09:30pm 25.7 26.9 13.9 48 7.0 CALM 0 6 0 3 1009.9 1009.3 0.0
22/09:00pm 27.7 27.4 11.3 36 9.4 SW 4 7 2 4 1009.7 1009.1 0.0
22/08:30pm 30.3 30.0 11.3 31 11.0 WSW 4 4 2 2 1009.7 1009.1 0.0
22/08:00pm 34.5 34.5 9.7 22 14.3 CALM 0 0 0 0 1009.7 1009.1 0.0
22/07:30pm 34.0 32.8 7.9 20 14.6 NW 4 7 2 4 1009.6 1009.0 0.0
22/07:00pm 35.5 34.6 9.1 20 15.2 NW 4 7 2 4 1009.6 1009.0 0.0
22/06:30pm 34.7 33.6 8.4 20 14.9 NW 4 9 2 5 1009.4 1008.8 0.0
22/06:00pm 35.3 34.1 9.7 21 14.9 W 6 7 3 4 1009.5 1008.9 0.0
22/05:30pm 34.9 33.1 9.3 21 14.7 W 9 19 5 10 1009.8 1009.2 0.0
22/05:00pm 34.5 32.8 9.7 22 14.3 ENE 9 19 5 10 1010.0 1009.4 0.0
22/04:30pm 34.7 34.0 9.9 22 14.4 N 4 9 2 5 1010.4 1009.8 0.0
22/04:00pm 34.1 33.2 10.7 24 13.7 ESE 6 13 3 7 1010.8 1010.2 0.0
22/03:30pm 33.4 32.5 11.3 26 13.0 NE 7 15 4 8 1011.2 1010.6 0.0
22/03:00pm 33.4 32.8 12.4 28 12.6 NNW 7 13 4 7 1011.6 1011.0 0.0
22/02:30pm 32.5 31.1 12.2 29 12.1 N 11 20 6 11 1011.9 1011.3 0.0
22/02:00pm 32.2 32.1 13.4 32 11.4 NE 6 15 3 8 1012.1 1011.5 0.0
22/01:30pm 30.9 30.4 12.8 33 10.8 NE 7 13 4 7 1012.5 1011.9 0.0
22/01:00pm 30.5 30.3 14.6 38 9.7 ENE 9 19 5 10 1013.0 1012.4 0.0
22/12:30pm 30.2 29.9 15.5 41 9.1 ENE 11 19 6 10 1013.5 1012.9 0.0
22/12:00pm 28.3 27.7 15.6 46 7.8 NE 13 19 7 10 1014.0 1013.4 0.0
22/11:30am 28.3 28.1 16.6 49 7.3 NE 13 20 7 11 1014.2 1013.6 0.0
22/11:00am 26.5 26.0 15.8 51 6.6 NE 13 22 7 12 1014.5 1013.9 0.0
22/10:30am 25.4 24.2 16.0 56 5.8 NE 17 26 9 14 1014.6 1014.0 0.0
22/10:00am 24.9 23.2 15.8 57 5.6 NE 19 24 10 13 1014.7 1014.1 0.0
22/09:30am 23.3 21.8 15.4 61 4.8 ENE 17 24 9 13 1015.2 1014.5 0.0
22/09:00am 22.8 22.2 15.6 64 4.3 ENE 13 20 7 11 1015.3 1014.7 0.0
22/08:30am 21.4 20.6 15.0 67 3.8 ENE 13 19 7 10 1015.4 1014.8 0.0
22/08:00am 20.5 19.8 15.3 72 3.1 ENE 13 19 7 10 1015.2 1014.5 0.0
22/07:30am 19.1 18.6 15.0 77 2.4 NE 11 17 6 9 1014.8 1014.2 0.0
22/07:00am 15.5 15.7 14.2 92 0.7 E 6 9 3 5 1014.4 1013.8 0.0
22/06:30am 12.9 12.5 12.3 96 0.3 ESE 6 7 3 4 1014.2 1013.6 0.0
22/06:00am 13.1 13.1 12.3 95 0.4 SSE 4 6 2 3 1014.0 1013.4 0.0
22/05:30am 13.2 12.9 12.7 97 0.3 SSW 6 7 3 4 1013.7 1013.1 0.0
22/05:00am 13.6 13.7 12.8 95 0.4 WSW 4 4 2 2 1013.5 1012.9 0.0
22/04:30am 13.5 13.0 12.6 94 0.5 WSW 7 9 4 5 1012.9 1012.3 0.0
22/04:00am 13.6 13.1 12.7 94 0.5 WSW 7 9 4 5 1012.7 1012.1 0.0
22/03:30am 14.4 13.6 12.8 90 0.9 WSW 9 9 5 5 1012.8 1012.2 0.0
22/03:00am 14.4 14.0 13.1 92 0.7 WSW 7 9 4 5 1012.7 1012.1 0.0
22/02:30am 15.2 14.5 13.2 88 1.1 WSW 9 11 5 6 1012.6 1012.0 0.0
22/02:00am 15.3 14.6 13.2 87 1.2 SW 9 9 5 5 1012.5 1011.9 0.0
22/01:30am 15.7 15.1 13.4 86 1.3 WSW 9 11 5 6 1012.6 1012.0 0.0
22/01:00am 16.1 15.1 13.4 84 1.5 SW 11 11 6 6 1012.6 1012.0 0.0
22/12:30am 16.6 15.6 13.5 82 1.8 SW 11 13 6 7 1012.6 1012.0 0.0
22/12:00am 17.2 16.6 13.5 79 2.1 SW 9 11 5 6 1012.6 1012.0 0.0
 
Date/Time
EDT
Temp
°C
App
Temp
°C
Dew
Point
°C
Rel
Hum
%
Delta-T
°C
Wind Press
QNH
hPa
Press
MSL
hPa
Rain since
9am
mm
Dir  Spd
km/h
Gust
km/h
Spd
kts
Gust
kts
21/11:30pm 17.9 16.5 13.4 75 2.6 WSW 13 13 7 7 1012.5 1011.9 0.0
21/11:00pm 18.4 17.6 13.9 75 2.6 WSW 11 13 6 7 1012.6 1012.0 0.0
21/10:30pm 19.4 19.0 14.2 72 3.0 SW 9 13 5 7 1012.4 1011.8 0.0
21/10:00pm 20.0 19.4 14.6 71 3.2 SW 11 15 6 8 1012.4 1011.8 0.0
21/09:30pm 21.2 20.6 14.6 66 3.9 SW 11 13 6 7 1012.2 1011.6 0.0
21/09:00pm 22.7 21.8 13.7 56 5.3 SW 11 15 6 8 1011.9 1011.3 0.0
21/08:30pm 24.4 23.2 11.7 45 7.2 SSW 9 11 5 6 1011.7 1011.1 0.0
21/08:00pm 27.7 25.0 9.0 31 10.3 S 13 17 7 9 1011.4 1010.8 0.0
21/07:30pm 28.9 25.1 7.5 26 11.6 S 17 24 9 13 1011.1 1010.5 0.0
21/07:00pm 29.7 25.1 5.7 22 12.7 S 19 26 10 14 1010.8 1010.2 0.0
21/06:30pm 30.3 26.6 8.1 25 12.2 SSW 17 22 9 12 1010.6 1010.0 0.0
21/06:00pm 30.6 27.0 8.3 25 12.4 SSW 17 20 9 11 1010.6 1010.0 0.0
21/05:30pm 30.6 27.6 7.7 24 12.6 SW 13 24 7 13 1010.6 1010.0 0.0
21/05:00pm 30.4 26.6 7.6 24 12.5 S 17 30 9 16 1010.7 1010.1 0.0
21/04:30pm 30.2 26.5 8.0 25 12.2 SSW 17 26 9 14 1010.8 1010.2 0.0
21/04:00pm 29.2 26.6 7.7 26 11.7 SSW 11 22 6 12 1011.0 1010.4 0.0

Other Formats:

Comma delimited format used in spreadsheet applications
http://www.bom.gov.au/fwo/IDV60801/IDV60801.94862.axf

JavaScript Object Notation format (JSON) in row-major order
http://www.bom.gov.au/fwo/IDV60801/IDV60801.94862.json